createdAt,value
2022-09-05T00:01:44.084Z,99.90
2022-09-05T00:06:55.265Z,99.90
2022-09-05T00:12:01.705Z,99.90
2022-09-05T00:17:16.889Z,99.90
2022-09-05T00:24:30.625Z,99.90
2022-09-05T00:27:59.662Z,99.90
2022-09-05T00:33:23.889Z,99.90
2022-09-05T00:38:36.817Z,99.90
2022-09-05T00:43:44.261Z,99.90
2022-09-05T00:48:52.206Z,99.90
2022-09-05T00:54:40.887Z,99.90
2022-09-05T01:00:03.017Z,99.90
2022-09-05T01:05:11.107Z,99.90
2022-09-05T01:10:23.729Z,99.90
2022-09-05T01:15:34.258Z,99.90
2022-09-05T01:20:56.633Z,99.90
2022-09-05T01:26:09.540Z,99.90
2022-09-05T01:31:24.558Z,99.90
2022-09-05T01:36:42.080Z,99.90
2022-09-05T01:41:50.424Z,99.90
2022-09-05T01:47:29.569Z,99.90
2022-09-05T01:53:00.486Z,99.90
2022-09-05T01:58:16.702Z,99.90
2022-09-05T02:03:32.368Z,99.90
2022-09-05T02:08:48.226Z,99.90
2022-09-05T02:13:58.147Z,99.90
2022-09-05T02:19:14.795Z,99.90
2022-09-05T02:24:22.528Z,99.90
2022-09-05T02:29:31.664Z,99.90
2022-09-05T02:34:44.776Z,99.90
2022-09-05T02:44:08.117Z,99.90
2022-09-05T02:45:26.667Z,99.90
2022-09-05T02:53:41.246Z,99.90
2022-09-05T02:57:44.681Z,99.90
2022-09-05T03:02:25.440Z,99.90
2022-09-05T03:07:52.598Z,99.90
2022-09-05T03:13:53.912Z,99.90
2022-09-05T03:19:26.321Z,99.90
2022-09-05T03:25:21.239Z,99.90
2022-09-05T03:30:24.951Z,99.90
2022-09-05T03:35:56.736Z,99.90
2022-09-05T03:41:12.837Z,99.90
2022-09-05T03:46:34.165Z,99.90
2022-09-05T03:57:06.778Z,99.90
2022-09-05T03:57:42.764Z,99.90
2022-09-05T04:08:10.246Z,99.90
2022-09-05T04:08:42.009Z,99.90
2022-09-05T04:13:52.268Z,99.90
2022-09-05T04:19:05.043Z,99.90
2022-09-05T04:24:11.589Z,99.90
2022-09-05T04:29:23.579Z,99.90
2022-09-05T04:34:49.871Z,99.90
2022-09-05T04:39:54.101Z,99.90
2022-09-05T04:45:03.161Z,99.90
2022-09-05T04:50:11.743Z,99.90
2022-09-05T04:55:17.207Z,99.90
2022-09-05T05:03:01.683Z,99.90
2022-09-05T05:06:12.050Z,99.90
2022-09-05T05:18:03.251Z,99.90
2022-09-05T05:18:06.544Z,99.90
2022-09-05T05:22:18.083Z,99.90
2022-09-05T05:27:25.835Z,99.90
2022-09-05T05:32:45.560Z,99.90
2022-09-05T05:37:54.423Z,99.90
2022-09-05T05:43:15.394Z,99.90
2022-09-05T05:48:31.828Z,99.90
2022-09-05T05:53:51.628Z,99.90
2022-09-05T05:59:08.959Z,99.90
2022-09-05T06:04:51.425Z,99.90
2022-09-05T06:14:51.067Z,99.90
2022-09-05T06:16:23.984Z,99.90
2022-09-05T06:22:13.837Z,99.90
2022-09-05T06:27:58.007Z,99.90
2022-09-05T06:33:14.559Z,99.90
2022-09-05T06:38:31.697Z,99.90
2022-09-05T06:43:51.376Z,99.90
2022-09-05T06:49:30.424Z,99.90
2022-09-05T06:54:37.349Z,99.90
2022-09-05T07:00:10.370Z,99.90
2022-09-05T07:05:45.183Z,99.90
2022-09-05T07:10:56.776Z,99.90
2022-09-05T07:16:24.406Z,99.90
2022-09-05T07:21:44.858Z,99.90
2022-09-05T07:26:53.709Z,99.90
2022-09-05T07:32:01.958Z,99.90
2022-09-05T07:37:14.947Z,99.90
2022-09-05T07:42:23.755Z,99.90
2022-09-05T07:47:32.163Z,99.90
2022-09-05T07:56:50.753Z,99.90
2022-09-05T07:58:07.774Z,99.90
2022-09-05T08:03:14.626Z,99.90
2022-09-05T08:08:20.261Z,99.90
2022-09-05T08:13:30.299Z,99.90
2022-09-05T08:18:38.432Z,99.90
2022-09-05T08:23:53.157Z,99.90
2022-09-05T08:29:04.276Z,99.90
2022-09-05T08:34:12.619Z,99.90
2022-09-05T08:39:20.438Z,99.90
2022-09-05T08:46:44.400Z,99.90
2022-09-05T08:50:26.917Z,98.20
2022-09-05T08:55:40.529Z,89.20
2022-09-05T09:00:55.593Z,75.00
2022-09-05T09:06:16.986Z,65.40
2022-09-05T09:11:30.883Z,58.10
2022-09-05T09:16:40.856Z,59.20
2022-09-05T09:21:50.640Z,57.70
2022-09-05T09:26:58.060Z,56.40
2022-09-05T09:32:06.879Z,53.90
2022-09-05T09:37:55.320Z,50.70
2022-09-05T09:43:07.378Z,48.10
2022-09-05T09:48:40.886Z,43.40
2022-09-05T09:54:03.140Z,42.60
2022-09-05T09:59:54.189Z,41.40
2022-09-05T10:10:34.023Z,39.00
2022-09-05T10:11:52.427Z,37.50
2022-09-05T10:16:54.866Z,38.00
2022-09-05T10:22:38.000Z,35.60
2022-09-05T10:27:57.652Z,31.90
2022-09-05T10:35:15.397Z,33.30
2022-09-05T10:38:47.294Z,31.70
2022-09-05T10:43:56.976Z,32.10
2022-09-05T10:49:07.949Z,29.60
2022-09-05T10:54:30.205Z,29.90
2022-09-05T11:02:21.333Z,29.20
2022-09-05T11:05:23.579Z,30.70
2022-09-05T11:10:34.687Z,31.40
2022-09-05T11:16:04.308Z,29.80
2022-09-05T11:21:12.742Z,28.50
2022-09-05T11:26:27.633Z,28.90
2022-09-05T11:32:17.541Z,30.10
2022-09-05T11:40:08.919Z,33.00
2022-09-05T11:42:49.614Z,32.80
2022-09-05T11:48:28.621Z,33.30
2022-09-05T11:54:09.774Z,40.20
2022-09-05T11:59:38.911Z,45.30
2022-09-05T12:05:50.166Z,44.80
2022-09-05T12:10:43.593Z,38.60
2022-09-05T12:16:08.248Z,46.50
2022-09-05T12:21:26.870Z,50.60
2022-09-05T12:27:42.270Z,54.20
2022-09-05T12:34:03.456Z,56.00
2022-09-05T12:40:58.023Z,58.50
2022-09-05T12:44:00.751Z,61.00
2022-09-05T12:48:38.949Z,61.20
2022-09-05T12:53:45.927Z,61.10
2022-09-05T13:03:01.433Z,61.00
2022-09-05T13:04:25.255Z,60.50
2022-09-05T13:10:34.040Z,60.30
2022-09-05T13:15:21.507Z,58.20
2022-09-05T13:20:34.114Z,57.20
2022-09-05T13:25:41.406Z,51.30
2022-09-05T13:37:55.196Z,53.30
2022-09-05T13:38:08.169Z,57.10
2022-09-05T13:41:53.874Z,65.70
2022-09-05T13:47:00.764Z,66.70
2022-09-05T13:52:21.141Z,68.50
2022-09-05T13:57:37.848Z,68.70
2022-09-05T14:08:41.106Z,66.40
2022-09-05T14:14:04.834Z,65.40
2022-09-05T14:19:35.267Z,64.50
2022-09-05T14:24:52.940Z,64.20
2022-09-05T14:30:19.735Z,65.60
2022-09-05T14:37:48.904Z,60.80
2022-09-05T14:41:43.185Z,52.40
2022-09-05T14:47:47.515Z,44.80
2022-09-05T15:02:44.026Z,47.50
2022-09-05T15:12:16.122Z,49.30
2022-09-05T15:14:46.802Z,51.80
2022-09-05T15:20:06.249Z,53.10
2022-09-05T15:25:19.030Z,52.20
2022-09-05T15:30:31.856Z,51.50
2022-09-05T15:35:43.796Z,52.20
2022-09-05T15:40:46.503Z,55.40
2022-09-05T15:45:49.798Z,56.10
2022-09-05T15:50:56.344Z,60.50
2022-09-05T15:56:14.080Z,68.90
2022-09-05T16:01:30.410Z,73.70
2022-09-05T16:10:41.440Z,77.50
2022-09-05T16:12:19.836Z,83.60
2022-09-05T16:23:18.356Z,89.90
2022-09-05T16:23:24.619Z,93.00
2022-09-05T16:28:23.917Z,94.90
2022-09-05T16:33:28.453Z,98.80
2022-09-05T16:38:49.743Z,99.90
2022-09-05T16:43:56.478Z,99.90
2022-09-05T16:49:11.953Z,99.90
2022-09-05T16:54:23.248Z,99.90
2022-09-05T16:59:29.869Z,99.90
2022-09-05T17:05:04.138Z,99.90
2022-09-05T17:10:11.583Z,99.90
2022-09-05T17:15:17.627Z,99.90
2022-09-05T17:20:23.057Z,99.90
2022-09-05T17:29:25.747Z,99.90
2022-09-05T17:36:40.910Z,99.90
2022-09-05T17:42:01.604Z,99.90
2022-09-05T17:47:15.325Z,99.90
2022-09-05T17:52:23.576Z,99.90
2022-09-05T17:57:39.270Z,99.90
2022-09-05T18:02:54.706Z,99.90
2022-09-05T18:07:58.124Z,99.90
2022-09-05T18:13:32.524Z,99.90
2022-09-05T18:19:28.517Z,99.90
2022-09-05T18:24:04.570Z,99.90
2022-09-05T18:29:24.706Z,99.90
2022-09-05T18:35:09.042Z,99.90
2022-09-05T18:40:36.831Z,99.90
2022-09-05T18:45:52.457Z,99.90
2022-09-05T18:51:15.415Z,99.90
2022-09-05T18:56:27.583Z,99.90
2022-09-05T19:01:38.146Z,99.90
2022-09-05T19:06:49.349Z,99.90
2022-09-05T19:12:31.849Z,99.90
2022-09-05T19:17:34.680Z,99.90
2022-09-05T19:23:10.314Z,99.90
2022-09-05T19:36:45.426Z,99.90
2022-09-05T19:36:50.765Z,99.90
2022-09-05T19:41:19.933Z,99.90
2022-09-05T19:47:49.885Z,99.90
2022-09-05T19:50:05.631Z,99.90
2022-09-05T19:55:20.395Z,99.90
2022-09-05T20:00:25.263Z,99.90
2022-09-05T20:05:29.775Z,99.90
2022-09-05T20:10:34.248Z,99.90
2022-09-05T20:15:38.852Z,99.90
2022-09-05T20:20:51.678Z,99.90
2022-09-05T20:25:56.450Z,99.90
2022-09-05T20:31:02.002Z,99.90
2022-09-05T20:43:10.236Z,99.90
2022-09-05T20:43:16.876Z,99.90
2022-09-05T20:52:58.518Z,99.90
2022-09-05T20:54:26.878Z,99.90
2022-09-05T20:57:57.411Z,99.90
2022-09-05T21:03:01.885Z,99.90
2022-09-05T21:08:30.996Z,99.90
2022-09-05T21:13:36.292Z,99.90
2022-09-05T21:18:42.854Z,99.90
2022-09-05T21:23:47.009Z,99.90
2022-09-05T21:29:05.483Z,99.90
2022-09-05T21:34:13.128Z,99.90
2022-09-05T21:39:20.005Z,99.90
2022-09-05T21:47:42.353Z,99.90
2022-09-05T21:49:45.584Z,99.90
2022-09-05T21:59:14.018Z,99.90
2022-09-05T22:00:15.484Z,99.90
2022-09-05T22:05:20.083Z,99.90
2022-09-05T22:10:32.455Z,99.90
2022-09-05T22:15:48.473Z,99.90
2022-09-05T22:21:31.914Z,99.90
2022-09-05T22:26:19.853Z,99.90
2022-09-05T22:31:23.318Z,99.90
2022-09-05T22:36:26.519Z,99.90
2022-09-05T22:41:31.140Z,99.90
2022-09-05T22:46:34.111Z,99.90
2022-09-05T22:51:36.831Z,99.90
2022-09-05T22:56:40.998Z,99.90
2022-09-05T23:01:43.907Z,99.90
2022-09-05T23:06:46.705Z,99.90
2022-09-05T23:11:50.728Z,99.90
2022-09-05T23:16:53.938Z,99.90
2022-09-05T23:21:56.669Z,99.90
2022-09-05T23:27:00.928Z,99.90
2022-09-05T23:32:03.960Z,99.90
2022-09-05T23:37:08.238Z,99.90
2022-09-05T23:42:13.371Z,99.90
2022-09-05T23:47:16.118Z,99.90
2022-09-05T23:52:18.856Z,99.90
2022-09-05T23:57:24.001Z,99.90
